sensor_id;sensor_type;location;lat;lon;timestamp;P1;durP1;ratioP1;P2;durP2;ratioP2
44764;SDS011;30484;52.382;5.260;2024-01-11T00:01:34;43.25;;;16.67;;
44764;SDS011;30484;52.382;5.260;2024-01-11T00:04:02;48.17;;;17.95;;
44764;SDS011;30484;52.382;5.260;2024-01-11T00:06:31;47.58;;;17.55;;
44764;SDS011;30484;52.382;5.260;2024-01-11T00:08:59;50.42;;;18.10;;
44764;SDS011;30484;52.382;5.260;2024-01-11T00:11:27;44.47;;;16.33;;
44764;SDS011;30484;52.382;5.260;2024-01-11T00:13:57;46.42;;;17.52;;
44764;SDS011;30484;52.382;5.260;2024-01-11T00:16:25;41.92;;;16.60;;
44764;SDS011;30484;52.382;5.260;2024-01-11T00:18:53;43.53;;;17.75;;
44764;SDS011;30484;52.382;5.260;2024-01-11T00:21:22;47.40;;;17.75;;
44764;SDS011;30484;52.382;5.260;2024-01-11T00:23:50;46.30;;;17.42;;
44764;SDS011;30484;52.382;5.260;2024-01-11T00:26:18;44.72;;;17.35;;
44764;SDS011;30484;52.382;5.260;2024-01-11T00:28:47;48.40;;;17.98;;
44764;SDS011;30484;52.382;5.260;2024-01-11T00:31:16;47.28;;;18.95;;
44764;SDS011;30484;52.382;5.260;2024-01-11T00:33:45;49.67;;;17.58;;
44764;SDS011;30484;52.382;5.260;2024-01-11T00:36:17;47.75;;;18.90;;
44764;SDS011;30484;52.382;5.260;2024-01-11T00:38:46;47.38;;;18.02;;
44764;SDS011;30484;52.382;5.260;2024-01-11T00:41:14;47.60;;;17.80;;
44764;SDS011;30484;52.382;5.260;2024-01-11T00:43:43;53.55;;;19.50;;
44764;SDS011;30484;52.382;5.260;2024-01-11T00:46:11;53.67;;;19.60;;
44764;SDS011;30484;52.382;5.260;2024-01-11T00:48:41;47.63;;;17.85;;
44764;SDS011;30484;52.382;5.260;2024-01-11T00:51:09;50.17;;;19.75;;
44764;SDS011;30484;52.382;5.260;2024-01-11T00:53:38;50.25;;;19.10;;
44764;SDS011;30484;52.382;5.260;2024-01-11T00:56:14;47.22;;;19.27;;
44764;SDS011;30484;52.382;5.260;2024-01-11T00:58:43;47.00;;;19.42;;
44764;SDS011;30484;52.382;5.260;2024-01-11T01:01:11;51.03;;;19.60;;
44764;SDS011;30484;52.382;5.260;2024-01-11T01:03:41;51.08;;;20.60;;
44764;SDS011;30484;52.382;5.260;2024-01-11T01:06:10;50.92;;;20.38;;
44764;SDS011;30484;52.382;5.260;2024-01-11T01:08:38;58.63;;;20.13;;
44764;SDS011;30484;52.382;5.260;2024-01-11T01:11:06;60.47;;;22.80;;
44764;SDS011;30484;52.382;5.260;2024-01-11T01:13:34;57.45;;;22.25;;
44764;SDS011;30484;52.382;5.260;2024-01-11T01:16:03;52.08;;;21.13;;
44764;SDS011;30484;52.382;5.260;2024-01-11T01:18:31;49.78;;;18.95;;
44764;SDS011;30484;52.382;5.260;2024-01-11T01:21:01;57.60;;;21.30;;
44764;SDS011;30484;52.382;5.260;2024-01-11T01:23:33;53.15;;;20.50;;
44764;SDS011;30484;52.382;5.260;2024-01-11T01:26:01;56.55;;;20.30;;
44764;SDS011;30484;52.382;5.260;2024-01-11T01:28:33;53.00;;;20.67;;
44764;SDS011;30484;52.382;5.260;2024-01-11T01:31:01;61.58;;;21.65;;
44764;SDS011;30484;52.382;5.260;2024-01-11T01:33:30;60.35;;;21.77;;
44764;SDS011;30484;52.382;5.260;2024-01-11T01:35:58;57.08;;;20.48;;
44764;SDS011;30484;52.382;5.260;2024-01-11T01:38:28;57.22;;;21.27;;
44764;SDS011;30484;52.382;5.260;2024-01-11T01:40:57;58.58;;;21.75;;
44764;SDS011;30484;52.382;5.260;2024-01-11T01:43:25;57.05;;;21.20;;
44764;SDS011;30484;52.382;5.260;2024-01-11T01:45:54;53.10;;;20.15;;
44764;SDS011;30484;52.382;5.260;2024-01-11T01:48:22;58.13;;;21.55;;
44764;SDS011;30484;52.382;5.260;2024-01-11T01:50:51;50.55;;;20.52;;
44764;SDS011;30484;52.382;5.260;2024-01-11T01:53:19;57.03;;;21.15;;
44764;SDS011;30484;52.382;5.260;2024-01-11T01:55:51;58.92;;;22.52;;
44764;SDS011;30484;52.382;5.260;2024-01-11T01:58:20;61.28;;;21.13;;
44764;SDS011;30484;52.382;5.260;2024-01-11T02:00:49;61.05;;;21.77;;
44764;SDS011;30484;52.382;5.260;2024-01-11T02:03:18;61.28;;;22.50;;
44764;SDS011;30484;52.382;5.260;2024-01-11T02:05:48;57.65;;;22.02;;
44764;SDS011;30484;52.382;5.260;2024-01-11T02:08:17;61.25;;;20.90;;
44764;SDS011;30484;52.382;5.260;2024-01-11T02:10:51;55.25;;;21.50;;
44764;SDS011;30484;52.382;5.260;2024-01-11T02:13:20;55.28;;;20.73;;
44764;SDS011;30484;52.382;5.260;2024-01-11T02:15:48;59.90;;;21.90;;
44764;SDS011;30484;52.382;5.260;2024-01-11T02:18:16;63.78;;;23.33;;
44764;SDS011;30484;52.382;5.260;2024-01-11T02:20:45;56.95;;;21.50;;
44764;SDS011;30484;52.382;5.260;2024-01-11T02:23:14;63.25;;;22.15;;
44764;SDS011;30484;52.382;5.260;2024-01-11T02:25:48;60.15;;;21.73;;
44764;SDS011;30484;52.382;5.260;2024-01-11T02:28:16;59.83;;;23.13;;
44764;SDS011;30484;52.382;5.260;2024-01-11T02:30:44;68.78;;;24.15;;
44764;SDS011;30484;52.382;5.260;2024-01-11T02:33:13;67.53;;;24.70;;
44764;SDS011;30484;52.382;5.260;2024-01-11T02:35:43;65.72;;;23.92;;
44764;SDS011;30484;52.382;5.260;2024-01-11T02:38:13;62.25;;;22.65;;
44764;SDS011;30484;52.382;5.260;2024-01-11T02:40:42;62.72;;;23.58;;
44764;SDS011;30484;52.382;5.260;2024-01-11T02:43:13;69.43;;;22.98;;
44764;SDS011;30484;52.382;5.260;2024-01-11T02:45:42;65.15;;;23.45;;
44764;SDS011;30484;52.382;5.260;2024-01-11T02:48:10;65.88;;;24.17;;
44764;SDS011;30484;52.382;5.260;2024-01-11T02:50:39;71.88;;;25.67;;
44764;SDS011;30484;52.382;5.260;2024-01-11T02:53:07;67.18;;;24.58;;
44764;SDS011;30484;52.382;5.260;2024-01-11T02:55:35;71.18;;;25.20;;
44764;SDS011;30484;52.382;5.260;2024-01-11T02:58:04;72.70;;;26.13;;
44764;SDS011;30484;52.382;5.260;2024-01-11T03:00:33;66.47;;;25.70;;
44764;SDS011;30484;52.382;5.260;2024-01-11T03:03:02;73.20;;;25.85;;
44764;SDS011;30484;52.382;5.260;2024-01-11T03:05:31;79.45;;;27.35;;
44764;SDS011;30484;52.382;5.260;2024-01-11T03:07:59;79.65;;;27.33;;
44764;SDS011;30484;52.382;5.260;2024-01-11T03:10:28;79.82;;;27.38;;
44764;SDS011;30484;52.382;5.260;2024-01-11T03:12:57;77.57;;;27.45;;
44764;SDS011;30484;52.382;5.260;2024-01-11T03:15:25;82.82;;;27.23;;
44764;SDS011;30484;52.382;5.260;2024-01-11T03:17:55;75.95;;;28.00;;
44764;SDS011;30484;52.382;5.260;2024-01-11T03:20:24;80.57;;;28.75;;
44764;SDS011;30484;52.382;5.260;2024-01-11T03:22:52;76.90;;;26.83;;
44764;SDS011;30484;52.382;5.260;2024-01-11T03:25:20;77.22;;;26.73;;
44764;SDS011;30484;52.382;5.260;2024-01-11T03:27:49;74.05;;;28.95;;
44764;SDS011;30484;52.382;5.260;2024-01-11T03:30:17;81.35;;;28.27;;
44764;SDS011;30484;52.382;5.260;2024-01-11T03:32:46;82.13;;;29.35;;
44764;SDS011;30484;52.382;5.260;2024-01-11T03:35:17;85.10;;;30.00;;
44764;SDS011;30484;52.382;5.260;2024-01-11T03:37:46;80.05;;;29.58;;
44764;SDS011;30484;52.382;5.260;2024-01-11T03:40:14;79.72;;;29.48;;
44764;SDS011;30484;52.382;5.260;2024-01-11T03:42:43;88.50;;;30.13;;
44764;SDS011;30484;52.382;5.260;2024-01-11T03:45:11;80.00;;;30.08;;
44764;SDS011;30484;52.382;5.260;2024-01-11T03:47:39;83.82;;;30.23;;
44764;SDS011;30484;52.382;5.260;2024-01-11T03:50:08;86.85;;;31.25;;
44764;SDS011;30484;52.382;5.260;2024-01-11T03:52:39;84.40;;;30.08;;
44764;SDS011;30484;52.382;5.260;2024-01-11T03:55:07;81.85;;;30.83;;
44764;SDS011;30484;52.382;5.260;2024-01-11T03:57:36;87.80;;;30.35;;
44764;SDS011;30484;52.382;5.260;2024-01-11T04:00:05;84.50;;;29.83;;
44764;SDS011;30484;52.382;5.260;2024-01-11T04:02:37;85.85;;;31.15;;
44764;SDS011;30484;52.382;5.260;2024-01-11T04:05:06;86.65;;;31.83;;
44764;SDS011;30484;52.382;5.260;2024-01-11T04:07:35;98.05;;;32.45;;
44764;SDS011;30484;52.382;5.260;2024-01-11T04:10:05;83.95;;;30.85;;
44764;SDS011;30484;52.382;5.260;2024-01-11T04:12:35;87.85;;;32.25;;
44764;SDS011;30484;52.382;5.260;2024-01-11T04:15:04;87.35;;;32.20;;
44764;SDS011;30484;52.382;5.260;2024-01-11T04:17:33;96.60;;;31.85;;
44764;SDS011;30484;52.382;5.260;2024-01-11T04:20:02;98.47;;;31.33;;
44764;SDS011;30484;52.382;5.260;2024-01-11T04:22:31;104.38;;;34.38;;
44764;SDS011;30484;52.382;5.260;2024-01-11T04:25:00;94.43;;;31.52;;
44764;SDS011;30484;52.382;5.260;2024-01-11T04:27:29;94.85;;;32.15;;
44764;SDS011;30484;52.382;5.260;2024-01-11T04:29:57;91.63;;;33.78;;
44764;SDS011;30484;52.382;5.260;2024-01-11T04:32:26;92.72;;;31.80;;
44764;SDS011;30484;52.382;5.260;2024-01-11T04:34:55;99.05;;;32.45;;
44764;SDS011;30484;52.382;5.260;2024-01-11T04:37:23;87.57;;;33.05;;
44764;SDS011;30484;52.382;5.260;2024-01-11T04:39:51;91.25;;;32.50;;
44764;SDS011;30484;52.382;5.260;2024-01-11T04:42:20;94.72;;;32.40;;
44764;SDS011;30484;52.382;5.260;2024-01-11T04:44:49;92.20;;;32.65;;
44764;SDS011;30484;52.382;5.260;2024-01-11T04:47:18;90.03;;;33.15;;
44764;SDS011;30484;52.382;5.260;2024-01-11T04:49:46;100.25;;;33.35;;
44764;SDS011;30484;52.382;5.260;2024-01-11T04:52:14;99.07;;;33.33;;
44764;SDS011;30484;52.382;5.260;2024-01-11T04:54:43;97.80;;;33.65;;
44764;SDS011;30484;52.382;5.260;2024-01-11T04:57:11;97.45;;;32.42;;
44764;SDS011;30484;52.382;5.260;2024-01-11T04:59:39;95.22;;;33.92;;
44764;SDS011;30484;52.382;5.260;2024-01-11T05:02:09;103.57;;;34.10;;
44764;SDS011;30484;52.382;5.260;2024-01-11T05:04:37;101.15;;;34.15;;
44764;SDS011;30484;52.382;5.260;2024-01-11T05:07:06;98.68;;;34.08;;
44764;SDS011;30484;52.382;5.260;2024-01-11T05:09:34;92.88;;;33.00;;
44764;SDS011;30484;52.382;5.260;2024-01-11T05:12:03;96.18;;;33.17;;
44764;SDS011;30484;52.382;5.260;2024-01-11T05:14:32;91.75;;;30.38;;
44764;SDS011;30484;52.382;5.260;2024-01-11T05:17:00;97.38;;;31.73;;
44764;SDS011;30484;52.382;5.260;2024-01-11T05:19:30;90.70;;;31.92;;
44764;SDS011;30484;52.382;5.260;2024-01-11T05:21:58;98.22;;;32.67;;
44764;SDS011;30484;52.382;5.260;2024-01-11T05:24:26;101.97;;;33.33;;
44764;SDS011;30484;52.382;5.260;2024-01-11T05:26:55;95.45;;;34.58;;
44764;SDS011;30484;52.382;5.260;2024-01-11T05:29:24;89.53;;;33.08;;
44764;SDS011;30484;52.382;5.260;2024-01-11T05:31:52;102.90;;;33.78;;
44764;SDS011;30484;52.382;5.260;2024-01-11T05:34:21;94.53;;;33.33;;
44764;SDS011;30484;52.382;5.260;2024-01-11T05:36:51;90.70;;;31.70;;
44764;SDS011;30484;52.382;5.260;2024-01-11T05:39:19;91.57;;;32.70;;
44764;SDS011;30484;52.382;5.260;2024-01-11T05:41:48;98.68;;;34.03;;
44764;SDS011;30484;52.382;5.260;2024-01-11T05:44:16;91.35;;;32.40;;
44764;SDS011;30484;52.382;5.260;2024-01-11T05:46:44;93.72;;;32.72;;
44764;SDS011;30484;52.382;5.260;2024-01-11T05:49:13;104.03;;;32.33;;
44764;SDS011;30484;52.382;5.260;2024-01-11T05:51:41;101.85;;;34.28;;
44764;SDS011;30484;52.382;5.260;2024-01-11T05:54:11;101.30;;;32.45;;
44764;SDS011;30484;52.382;5.260;2024-01-11T05:56:40;96.65;;;33.55;;
44764;SDS011;30484;52.382;5.260;2024-01-11T05:59:08;97.25;;;32.85;;
44764;SDS011;30484;52.382;5.260;2024-01-11T06:01:40;93.18;;;32.92;;
44764;SDS011;30484;52.382;5.260;2024-01-11T06:04:09;93.93;;;33.33;;
44764;SDS011;30484;52.382;5.260;2024-01-11T06:06:39;90.55;;;33.05;;
44764;SDS011;30484;52.382;5.260;2024-01-11T06:09:07;97.53;;;34.22;;
44764;SDS011;30484;52.382;5.260;2024-01-11T06:11:37;94.90;;;34.42;;
44764;SDS011;30484;52.382;5.260;2024-01-11T06:14:06;96.35;;;33.47;;
44764;SDS011;30484;52.382;5.260;2024-01-11T06:16:34;96.78;;;34.15;;
44764;SDS011;30484;52.382;5.260;2024-01-11T06:19:03;100.15;;;33.63;;
44764;SDS011;30484;52.382;5.260;2024-01-11T06:21:33;90.35;;;30.75;;
44764;SDS011;30484;52.382;5.260;2024-01-11T06:24:02;99.00;;;34.88;;
44764;SDS011;30484;52.382;5.260;2024-01-11T06:26:31;103.22;;;34.28;;
44764;SDS011;30484;52.382;5.260;2024-01-11T06:28:59;102.68;;;34.90;;
44764;SDS011;30484;52.382;5.260;2024-01-11T06:31:28;105.18;;;34.38;;
44764;SDS011;30484;52.382;5.260;2024-01-11T06:33:56;102.38;;;34.53;;
44764;SDS011;30484;52.382;5.260;2024-01-11T06:36:25;95.72;;;34.40;;
44764;SDS011;30484;52.382;5.260;2024-01-11T06:38:53;106.15;;;35.22;;
44764;SDS011;30484;52.382;5.260;2024-01-11T06:41:21;102.57;;;34.33;;
44764;SDS011;30484;52.382;5.260;2024-01-11T06:43:50;101.32;;;34.25;;
44764;SDS011;30484;52.382;5.260;2024-01-11T06:46:20;93.32;;;33.83;;
44764;SDS011;30484;52.382;5.260;2024-01-11T06:48:49;106.97;;;35.08;;
44764;SDS011;30484;52.382;5.260;2024-01-11T06:51:20;107.70;;;34.90;;
44764;SDS011;30484;52.382;5.260;2024-01-11T06:53:49;100.72;;;33.13;;
44764;SDS011;30484;52.382;5.260;2024-01-11T06:56:18;103.35;;;34.90;;
44764;SDS011;30484;52.382;5.260;2024-01-11T06:58:47;102.32;;;34.22;;
44764;SDS011;30484;52.382;5.260;2024-01-11T07:01:16;96.32;;;32.53;;
44764;SDS011;30484;52.382;5.260;2024-01-11T07:03:46;97.78;;;32.78;;
44764;SDS011;30484;52.382;5.260;2024-01-11T07:06:16;97.40;;;33.15;;
44764;SDS011;30484;52.382;5.260;2024-01-11T07:08:44;98.00;;;33.10;;
44764;SDS011;30484;52.382;5.260;2024-01-11T07:11:13;94.28;;;33.08;;
44764;SDS011;30484;52.382;5.260;2024-01-11T07:13:41;94.22;;;32.72;;
44764;SDS011;30484;52.382;5.260;2024-01-11T07:16:10;96.95;;;33.30;;
44764;SDS011;30484;52.382;5.260;2024-01-11T07:18:41;96.05;;;32.55;;
44764;SDS011;30484;52.382;5.260;2024-01-11T07:21:11;95.63;;;33.25;;
44764;SDS011;30484;52.382;5.260;2024-01-11T07:23:40;92.57;;;33.10;;
44764;SDS011;30484;52.382;5.260;2024-01-11T07:26:08;108.50;;;35.42;;
44764;SDS011;30484;52.382;5.260;2024-01-11T07:28:36;102.28;;;36.90;;
44764;SDS011;30484;52.382;5.260;2024-01-11T07:31:05;100.15;;;33.83;;
44764;SDS011;30484;52.382;5.260;2024-01-11T07:33:34;106.55;;;34.95;;
44764;SDS011;30484;52.382;5.260;2024-01-11T07:36:02;93.18;;;33.08;;
44764;SDS011;30484;52.382;5.260;2024-01-11T07:38:34;90.20;;;33.75;;
44764;SDS011;30484;52.382;5.260;2024-01-11T07:41:02;97.72;;;33.58;;
44764;SDS011;30484;52.382;5.260;2024-01-11T07:43:31;97.28;;;34.50;;
44764;SDS011;30484;52.382;5.260;2024-01-11T07:46:18;98.32;;;33.15;;
44764;SDS011;30484;52.382;5.260;2024-01-11T07:49:01;97.80;;;32.85;;
44764;SDS011;30484;52.382;5.260;2024-01-11T07:51:30;106.50;;;33.95;;
44764;SDS011;30484;52.382;5.260;2024-01-11T07:53:59;102.60;;;33.90;;
44764;SDS011;30484;52.382;5.260;2024-01-11T07:56:29;91.20;;;32.58;;
44764;SDS011;30484;52.382;5.260;2024-01-11T07:58:57;99.45;;;34.60;;
44764;SDS011;30484;52.382;5.260;2024-01-11T08:01:25;105.75;;;34.55;;
44764;SDS011;30484;52.382;5.260;2024-01-11T08:03:54;102.22;;;34.58;;
44764;SDS011;30484;52.382;5.260;2024-01-11T08:06:22;100.13;;;34.13;;
44764;SDS011;30484;52.382;5.260;2024-01-11T08:08:51;104.30;;;34.78;;
44764;SDS011;30484;52.382;5.260;2024-01-11T08:11:21;98.72;;;34.42;;
44764;SDS011;30484;52.382;5.260;2024-01-11T08:13:49;95.53;;;33.95;;
44764;SDS011;30484;52.382;5.260;2024-01-11T08:16:19;96.90;;;34.63;;
44764;SDS011;30484;52.382;5.260;2024-01-11T08:18:48;103.40;;;34.55;;
44764;SDS011;30484;52.382;5.260;2024-01-11T08:21:17;92.53;;;33.90;;
44764;SDS011;30484;52.382;5.260;2024-01-11T08:23:46;114.25;;;36.95;;
44764;SDS011;30484;52.382;5.260;2024-01-11T08:26:15;104.35;;;35.05;;
44764;SDS011;30484;52.382;5.260;2024-01-11T08:28:47;100.78;;;35.15;;
44764;SDS011;30484;52.382;5.260;2024-01-11T08:31:15;90.05;;;32.10;;
44764;SDS011;30484;52.382;5.260;2024-01-11T08:33:43;92.70;;;31.40;;
44764;SDS011;30484;52.382;5.260;2024-01-11T08:36:12;85.70;;;30.95;;
44764;SDS011;30484;52.382;5.260;2024-01-11T08:38:41;81.68;;;29.73;;
44764;SDS011;30484;52.382;5.260;2024-01-11T08:41:09;95.80;;;32.55;;
44764;SDS011;30484;52.382;5.260;2024-01-11T08:43:38;90.43;;;30.70;;
44764;SDS011;30484;52.382;5.260;2024-01-11T08:46:08;80.38;;;29.55;;
44764;SDS011;30484;52.382;5.260;2024-01-11T08:48:36;79.90;;;30.33;;
44764;SDS011;30484;52.382;5.260;2024-01-11T08:51:05;73.68;;;27.85;;
44764;SDS011;30484;52.382;5.260;2024-01-11T08:53:33;83.05;;;28.33;;
44764;SDS011;30484;52.382;5.260;2024-01-11T08:56:01;82.45;;;29.77;;
44764;SDS011;30484;52.382;5.260;2024-01-11T08:58:30;79.60;;;29.50;;
44764;SDS011;30484;52.382;5.260;2024-01-11T09:00:59;75.38;;;29.08;;
44764;SDS011;30484;52.382;5.260;2024-01-11T09:03:28;71.97;;;26.67;;
44764;SDS011;30484;52.382;5.260;2024-01-11T09:05:57;67.85;;;28.13;;
44764;SDS011;30484;52.382;5.260;2024-01-11T09:08:25;72.90;;;27.50;;
44764;SDS011;30484;52.382;5.260;2024-01-11T09:10:54;73.97;;;27.27;;
44764;SDS011;30484;52.382;5.260;2024-01-11T09:13:22;73.60;;;28.13;;
44764;SDS011;30484;52.382;5.260;2024-01-11T09:15:52;78.90;;;28.70;;
44764;SDS011;30484;52.382;5.260;2024-01-11T09:18:21;71.30;;;28.35;;
44764;SDS011;30484;52.382;5.260;2024-01-11T09:20:52;71.13;;;28.20;;
44764;SDS011;30484;52.382;5.260;2024-01-11T09:23:20;75.70;;;30.65;;
44764;SDS011;30484;52.382;5.260;2024-01-11T09:25:49;72.55;;;27.83;;
44764;SDS011;30484;52.382;5.260;2024-01-11T09:28:17;75.43;;;29.85;;
44764;SDS011;30484;52.382;5.260;2024-01-11T09:30:45;66.93;;;27.90;;
44764;SDS011;30484;52.382;5.260;2024-01-11T09:33:14;72.90;;;29.65;;
44764;SDS011;30484;52.382;5.260;2024-01-11T09:35:42;67.45;;;27.85;;
44764;SDS011;30484;52.382;5.260;2024-01-11T09:38:12;74.45;;;30.23;;
44764;SDS011;30484;52.382;5.260;2024-01-11T09:40:40;67.97;;;29.08;;
44764;SDS011;30484;52.382;5.260;2024-01-11T09:43:09;70.93;;;29.33;;
44764;SDS011;30484;52.382;5.260;2024-01-11T09:45:38;60.70;;;27.55;;
44764;SDS011;30484;52.382;5.260;2024-01-11T09:48:07;62.90;;;28.17;;
44764;SDS011;30484;52.382;5.260;2024-01-11T09:50:37;65.95;;;27.38;;
44764;SDS011;30484;52.382;5.260;2024-01-11T09:53:07;65.60;;;28.25;;
44764;SDS011;30484;52.382;5.260;2024-01-11T09:55:38;65.65;;;27.27;;
44764;SDS011;30484;52.382;5.260;2024-01-11T09:58:07;67.88;;;28.17;;
44764;SDS011;30484;52.382;5.260;2024-01-11T10:00:36;64.00;;;27.65;;
44764;SDS011;30484;52.382;5.260;2024-01-11T10:03:07;60.83;;;27.20;;
44764;SDS011;30484;52.382;5.260;2024-01-11T10:05:35;63.15;;;27.80;;
44764;SDS011;30484;52.382;5.260;2024-01-11T10:08:05;59.78;;;27.27;;
44764;SDS011;30484;52.382;5.260;2024-01-11T10:10:33;58.13;;;25.50;;
44764;SDS011;30484;52.382;5.260;2024-01-11T10:13:04;53.38;;;24.90;;
44764;SDS011;30484;52.382;5.260;2024-01-11T10:15:33;55.70;;;24.92;;
44764;SDS011;30484;52.382;5.260;2024-01-11T10:18:01;52.85;;;24.27;;
44764;SDS011;30484;52.382;5.260;2024-01-11T10:20:31;51.78;;;24.30;;
44764;SDS011;30484;52.382;5.260;2024-01-11T10:23:01;57.55;;;23.35;;
44764;SDS011;30484;52.382;5.260;2024-01-11T10:25:30;48.40;;;22.88;;
44764;SDS011;30484;52.382;5.260;2024-01-11T10:27:58;45.65;;;21.75;;
44764;SDS011;30484;52.382;5.260;2024-01-11T10:30:28;46.92;;;22.05;;
44764;SDS011;30484;52.382;5.260;2024-01-11T10:32:57;51.22;;;22.80;;
44764;SDS011;30484;52.382;5.260;2024-01-11T10:35:26;43.60;;;22.13;;
44764;SDS011;30484;52.382;5.260;2024-01-11T10:37:54;46.55;;;21.73;;
44764;SDS011;30484;52.382;5.260;2024-01-11T10:40:26;48.85;;;22.85;;
44764;SDS011;30484;52.382;5.260;2024-01-11T10:42:56;45.63;;;21.38;;
44764;SDS011;30484;52.382;5.260;2024-01-11T10:45:29;45.63;;;21.80;;
44764;SDS011;30484;52.382;5.260;2024-01-11T10:48:06;44.35;;;22.20;;
44764;SDS011;30484;52.382;5.260;2024-01-11T10:50:41;44.45;;;21.13;;
44764;SDS011;30484;52.382;5.260;2024-01-11T10:53:15;45.40;;;21.42;;
44764;SDS011;30484;52.382;5.260;2024-01-11T10:55:55;47.60;;;20.95;;
44764;SDS011;30484;52.382;5.260;2024-01-11T10:58:26;43.42;;;20.92;;
44764;SDS011;30484;52.382;5.260;2024-01-11T11:00:56;39.55;;;19.35;;
44764;SDS011;30484;52.382;5.260;2024-01-11T11:03:27;41.13;;;19.25;;
44764;SDS011;30484;52.382;5.260;2024-01-11T11:05:56;40.33;;;18.80;;
44764;SDS011;30484;52.382;5.260;2024-01-11T11:08:26;39.50;;;19.38;;
44764;SDS011;30484;52.382;5.260;2024-01-11T11:10:55;41.92;;;19.77;;
44764;SDS011;30484;52.382;5.260;2024-01-11T11:13:25;40.00;;;19.05;;
44764;SDS011;30484;52.382;5.260;2024-01-11T11:15:55;38.10;;;18.85;;
44764;SDS011;30484;52.382;5.260;2024-01-11T11:18:27;35.03;;;17.85;;
44764;SDS011;30484;52.382;5.260;2024-01-11T11:20:56;36.20;;;18.70;;
44764;SDS011;30484;52.382;5.260;2024-01-11T11:23:25;41.67;;;20.02;;
44764;SDS011;30484;52.382;5.260;2024-01-11T11:25:54;35.28;;;18.00;;
44764;SDS011;30484;52.382;5.260;2024-01-11T11:28:24;37.15;;;18.42;;
44764;SDS011;30484;52.382;5.260;2024-01-11T11:30:54;37.97;;;18.30;;
44764;SDS011;30484;52.382;5.260;2024-01-11T11:33:29;39.55;;;18.95;;
44764;SDS011;30484;52.382;5.260;2024-01-11T11:35:58;37.28;;;18.77;;
44764;SDS011;30484;52.382;5.260;2024-01-11T11:38:27;37.20;;;18.48;;
44764;SDS011;30484;52.382;5.260;2024-01-11T11:40:58;35.97;;;18.35;;
44764;SDS011;30484;52.382;5.260;2024-01-11T11:43:28;37.80;;;18.38;;
44764;SDS011;30484;52.382;5.260;2024-01-11T11:45:58;41.15;;;19.10;;
44764;SDS011;30484;52.382;5.260;2024-01-11T11:48:52;41.38;;;18.30;;
44764;SDS011;30484;52.382;5.260;2024-01-11T11:51:22;34.90;;;17.80;;
44764;SDS011;30484;52.382;5.260;2024-01-11T11:53:54;38.15;;;20.13;;
44764;SDS011;30484;52.382;5.260;2024-01-11T11:56:23;36.63;;;18.83;;
44764;SDS011;30484;52.382;5.260;2024-01-11T11:58:51;36.03;;;18.67;;
44764;SDS011;30484;52.382;5.260;2024-01-11T12:01:23;34.28;;;18.13;;
44764;SDS011;30484;52.382;5.260;2024-01-11T12:03:52;34.78;;;17.00;;
44764;SDS011;30484;52.382;5.260;2024-01-11T12:06:21;39.50;;;18.75;;
44764;SDS011;30484;52.382;5.260;2024-01-11T12:08:52;37.85;;;19.58;;
44764;SDS011;30484;52.382;5.260;2024-01-11T12:11:23;33.25;;;17.67;;
44764;SDS011;30484;52.382;5.260;2024-01-11T12:13:53;38.85;;;18.20;;
44764;SDS011;30484;52.382;5.260;2024-01-11T12:16:25;34.13;;;17.17;;
44764;SDS011;30484;52.382;5.260;2024-01-11T12:18:54;31.92;;;17.60;;
44764;SDS011;30484;52.382;5.260;2024-01-11T12:21:23;33.40;;;17.30;;
44764;SDS011;30484;52.382;5.260;2024-01-11T12:23:52;35.20;;;17.42;;
44764;SDS011;30484;52.382;5.260;2024-01-11T12:26:21;34.25;;;17.88;;
44764;SDS011;30484;52.382;5.260;2024-01-11T12:28:50;37.58;;;19.55;;
44764;SDS011;30484;52.382;5.260;2024-01-11T12:31:19;40.00;;;19.48;;
44764;SDS011;30484;52.382;5.260;2024-01-11T12:33:51;36.22;;;18.95;;
44764;SDS011;30484;52.382;5.260;2024-01-11T12:36:21;39.55;;;19.45;;
44764;SDS011;30484;52.382;5.260;2024-01-11T12:38:49;39.03;;;19.73;;
44764;SDS011;30484;52.382;5.260;2024-01-11T12:41:19;41.78;;;20.70;;
44764;SDS011;30484;52.382;5.260;2024-01-11T12:43:50;40.67;;;20.30;;
44764;SDS011;30484;52.382;5.260;2024-01-11T12:46:19;39.30;;;20.63;;
44764;SDS011;30484;52.382;5.260;2024-01-11T12:48:48;39.75;;;20.63;;
44764;SDS011;30484;52.382;5.260;2024-01-11T12:51:18;36.95;;;19.13;;
44764;SDS011;30484;52.382;5.260;2024-01-11T12:53:49;37.22;;;19.83;;
44764;SDS011;30484;52.382;5.260;2024-01-11T12:56:19;41.58;;;19.40;;
44764;SDS011;30484;52.382;5.260;2024-01-11T12:58:49;34.53;;;17.95;;
44764;SDS011;30484;52.382;5.260;2024-01-11T13:01:18;38.40;;;18.02;;
44764;SDS011;30484;52.382;5.260;2024-01-11T13:03:46;33.65;;;17.95;;
44764;SDS011;30484;52.382;5.260;2024-01-11T13:06:17;33.17;;;17.42;;
44764;SDS011;30484;52.382;5.260;2024-01-11T13:08:46;33.25;;;16.70;;
44764;SDS011;30484;52.382;5.260;2024-01-11T13:11:15;37.55;;;18.23;;
44764;SDS011;30484;52.382;5.260;2024-01-11T13:13:44;34.75;;;18.15;;
44764;SDS011;30484;52.382;5.260;2024-01-11T13:16:14;32.90;;;16.52;;
44764;SDS011;30484;52.382;5.260;2024-01-11T13:18:45;34.03;;;15.90;;
44764;SDS011;30484;52.382;5.260;2024-01-11T13:21:14;33.30;;;17.02;;
44764;SDS011;30484;52.382;5.260;2024-01-11T13:23:44;32.60;;;16.35;;
44764;SDS011;30484;52.382;5.260;2024-01-11T13:26:12;37.05;;;17.15;;
44764;SDS011;30484;52.382;5.260;2024-01-11T13:28:41;36.97;;;17.20;;
44764;SDS011;30484;52.382;5.260;2024-01-11T13:31:09;32.00;;;16.33;;
44764;SDS011;30484;52.382;5.260;2024-01-11T13:33:38;33.00;;;17.08;;
44764;SDS011;30484;52.382;5.260;2024-01-11T13:36:06;36.33;;;16.58;;
44764;SDS011;30484;52.382;5.260;2024-01-11T13:38:35;33.00;;;16.38;;
44764;SDS011;30484;52.382;5.260;2024-01-11T13:41:05;32.38;;;16.23;;
44764;SDS011;30484;52.382;5.260;2024-01-11T13:43:35;34.13;;;15.95;;
44764;SDS011;30484;52.382;5.260;2024-01-11T13:46:04;31.10;;;16.35;;
44764;SDS011;30484;52.382;5.260;2024-01-11T13:48:32;33.65;;;16.02;;
44764;SDS011;30484;52.382;5.260;2024-01-11T13:51:01;31.48;;;15.20;;
44764;SDS011;30484;52.382;5.260;2024-01-11T13:53:30;38.15;;;16.77;;
44764;SDS011;30484;52.382;5.260;2024-01-11T13:55:59;31.98;;;15.98;;
44764;SDS011;30484;52.382;5.260;2024-01-11T13:58:30;30.58;;;15.63;;
44764;SDS011;30484;52.382;5.260;2024-01-11T14:00:58;31.92;;;14.48;;
44764;SDS011;30484;52.382;5.260;2024-01-11T14:03:26;29.50;;;14.98;;
44764;SDS011;30484;52.382;5.260;2024-01-11T14:05:55;32.80;;;14.65;;
44764;SDS011;30484;52.382;5.260;2024-01-11T14:08:24;30.67;;;14.70;;
44764;SDS011;30484;52.382;5.260;2024-01-11T14:10:53;36.53;;;16.00;;
44764;SDS011;30484;52.382;5.260;2024-01-11T14:13:21;28.55;;;14.55;;
44764;SDS011;30484;52.382;5.260;2024-01-11T14:15:51;31.73;;;15.85;;
44764;SDS011;30484;52.382;5.260;2024-01-11T14:18:20;31.20;;;14.82;;
44764;SDS011;30484;52.382;5.260;2024-01-11T14:20:50;29.77;;;15.23;;
44764;SDS011;30484;52.382;5.260;2024-01-11T14:23:18;29.60;;;15.95;;
44764;SDS011;30484;52.382;5.260;2024-01-11T14:25:47;34.50;;;15.48;;
44764;SDS011;30484;52.382;5.260;2024-01-11T14:28:15;31.33;;;15.38;;
44764;SDS011;30484;52.382;5.260;2024-01-11T14:30:44;33.17;;;16.40;;
44764;SDS011;30484;52.382;5.260;2024-01-11T14:33:14;32.60;;;16.48;;